CheckWX is a tool to help pilots better visualize weather data.  It is not intended as a substitute for an official pre-flight weather briefing.

06:32:52 UTC

CYQT TAF
Thunder Bay Airport
Thunder Bay, Canada
TAF CYQT 250140Z 2502/2514 05008KT P6SM -SN OVC012 TEMPO 2502/2507 5SM -SN OVC008 PROB30 2502/2507 2SM -FZDZ BR FM250700 34005KT P6SM OVC015 TEMPO 2507/2514 5SM -SN OVC012 PROB30 2507/2514 2SM -FZDZ BR RMK NXT FCST BY 250800Z

Jan-25@
02:00 UTC

Jan-25 @ 02:00 UTC

Jan-25@
07:00 UTC

Jan-25 @ 07:00 UTC

TAF CYQT 250140Z 2502/2514 05008KT P6SM -SN OVC012
Wind
  • 050° at 8 KTS
Conditions
Light Snow
Cloud Levels
  • Overcast at 1,200' AGL

Jan-25@
02:00 UTC

Jan-25 @ 02:00 UTC

Jan-25@
07:00 UTC

Jan-25 @ 07:00 UTC

TEMPO 2502/2507 5SM -SN OVC008

Temporary

Temporary Changes expected for less than half the time period

Conditions
Light Snow
Cloud Levels
  • Overcast at 800' AGL

Jan-25@
02:00 UTC

Jan-25 @ 02:00 UTC

Jan-25@
07:00 UTC

Jan-25 @ 07:00 UTC

PROB30 2502/2507 2SM -FZDZ BR

Probable - 30% Likelihood

Probable - 30% Likelihood during this time.

Conditions
Light Freezing Light Drizzle, Mist

Jan-25@
07:00 UTC

Jan-25 @ 07:00 UTC

Jan-25@
14:00 UTC

Jan-25 @ 14:00 UTC

FM250700 34005KT P6SM OVC015

From

From Standard forecast or significant change

Wind
  • 340° at 5 KTS
Cloud Levels
  • Overcast at 1,500' AGL

Jan-25@
07:00 UTC

Jan-25 @ 07:00 UTC

Jan-25@
14:00 UTC

Jan-25 @ 14:00 UTC

TEMPO 2507/2514 5SM -SN OVC012

Temporary

Temporary Changes expected for less than half the time period

Conditions
Light Snow
Cloud Levels
  • Overcast at 1,200' AGL

Jan-25@
07:00 UTC

Jan-25 @ 07:00 UTC

Jan-25@
14:00 UTC

Jan-25 @ 14:00 UTC

PROB30 2507/2514 2SM -FZDZ BR RMK NXT FCST BY 250800Z

Probable - 30% Likelihood

Probable - 30% Likelihood during this time.

Conditions
Light Freezing Light Drizzle, Mist